Big Trout Lake Airport
CYTL : now visible

Airfield :











YOU CAN JOIN US ON...

 
LOGIN :

Register | Disclaimer

   EN    FR    IT 

 









Legend :    VFR   Marginal VFR   IFR   Intensive IFR   Very Intensive IFR
Visi :
Ceiling :
>= 8 km
>= 3000ft
5 to 8 km
1000 to 3000 ft
1500m to 5 km
500 to 1000 ft
800 to 1500m
200 to 500 ft
< 800m
< 200 ft
Symbols :   Thunderstorms  Fog  Heavy snow  Heavy precipitations  Wind > 20 kt






- Airport Elevation : 729 ft
- IATA code : YTL


CYTL - Big Trout Lake

CURRENT METAR :
  • 161308Z AUTO 27008KT 9SM SCT016 M24/M26 A2981 RMK SLP125

EXPIRED METARs :
  • 161253Z AUTO 27007KT 9SM -SN SCT016 M24/M26 A2980 RMK SLP123
  • 161200Z AUTO 27007KT 9SM FEW075 M23/M25 A2979 RMK SLP118
  • 161108Z AUTO 27004KT 9SM SCT020 M22/M24 A2977 RMK SLP113
  • 161038Z AUTO 28005KT 9SM -SN BKN020 BKN075 M21/M23 A2977 RMK SLP113
  • 161017Z AUTO 27004KT 9SM FEW022 SCT075 M23/M25 A2977 RMK SLP112

TAF TAF CYTL
Valid from the 16 at 08:00 until the 16 at 20:00 UTC


160746Z 1608/1620 27005KT P6SM OVC030
TEMPO 1608/1612 5SM -SN
BECMG 1612/1614 27012KT RMK FCST BASED ON AUTO OBS. NXT FCST BY 161400Z



MET'MAP, your aeronautical weather chart ! - Copyright ORBIFLY December 2007 - Disclaimer

ORBIFLY MET'MAP TEAM :

Programming & Development : Alexandra Zaïnal
Concept & original design : Baudouin d'Aumeries
Assistance for programming : Marc-Olivier Méhu
Technical & hardware support : Manuel Goepfert

Contact : metmap@orbifly.com




SOURCES & CREDITS :

   NOAA       Earth
Advisory